sensor_id;sensor_type;location;lat;lon;timestamp;P1;durP1;ratioP1;P2;durP2;ratioP2
7160;SDS011;3622;53.576;9.978;2024-02-23T00:00:31;1.20;;;0.60;;
7160;SDS011;3622;53.576;9.978;2024-02-23T00:02:57;0.80;;;0.50;;
7160;SDS011;3622;53.576;9.978;2024-02-23T00:05:23;0.60;;;0.40;;
7160;SDS011;3622;53.576;9.978;2024-02-23T00:07:49;2.80;;;0.77;;
7160;SDS011;3622;53.576;9.978;2024-02-23T00:10:15;5.43;;;0.70;;
7160;SDS011;3622;53.576;9.978;2024-02-23T00:12:42;1.93;;;1.07;;
7160;SDS011;3622;53.576;9.978;2024-02-23T00:15:08;1.20;;;0.93;;
7160;SDS011;3622;53.576;9.978;2024-02-23T00:17:34;1.67;;;1.03;;
7160;SDS011;3622;53.576;9.978;2024-02-23T00:20:00;3.23;;;1.00;;
7160;SDS011;3622;53.576;9.978;2024-02-23T00:22:26;1.63;;;1.00;;
7160;SDS011;3622;53.576;9.978;2024-02-23T00:24:52;1.43;;;1.10;;
7160;SDS011;3622;53.576;9.978;2024-02-23T00:27:18;4.00;;;1.93;;
7160;SDS011;3622;53.576;9.978;2024-02-23T00:29:44;4.27;;;1.23;;
7160;SDS011;3622;53.576;9.978;2024-02-23T00:32:10;1.40;;;1.30;;
7160;SDS011;3622;53.576;9.978;2024-02-23T00:34:36;2.40;;;1.10;;
7160;SDS011;3622;53.576;9.978;2024-02-23T00:37:02;1.03;;;0.93;;
7160;SDS011;3622;53.576;9.978;2024-02-23T00:39:28;1.07;;;0.90;;
7160;SDS011;3622;53.576;9.978;2024-02-23T00:41:57;1.53;;;1.10;;
7160;SDS011;3622;53.576;9.978;2024-02-23T00:44:23;1.20;;;0.90;;
7160;SDS011;3622;53.576;9.978;2024-02-23T00:46:49;1.00;;;0.50;;
7160;SDS011;3622;53.576;9.978;2024-02-23T00:49:15;1.77;;;1.00;;
7160;SDS011;3622;53.576;9.978;2024-02-23T00:51:41;1.00;;;0.70;;
7160;SDS011;3622;53.576;9.978;2024-02-23T00:54:07;0.80;;;0.80;;
7160;SDS011;3622;53.576;9.978;2024-02-23T00:56:33;0.70;;;0.43;;
7160;SDS011;3622;53.576;9.978;2024-02-23T00:59:00;0.70;;;0.60;;
7160;SDS011;3622;53.576;9.978;2024-02-23T01:01:25;0.60;;;0.40;;
7160;SDS011;3622;53.576;9.978;2024-02-23T01:03:53;0.60;;;0.30;;
7160;SDS011;3622;53.576;9.978;2024-02-23T01:06:19;0.70;;;0.50;;
7160;SDS011;3622;53.576;9.978;2024-02-23T01:08:45;0.60;;;0.30;;
7160;SDS011;3622;53.576;9.978;2024-02-23T01:11:11;1.13;;;0.40;;
7160;SDS011;3622;53.576;9.978;2024-02-23T01:13:37;0.60;;;0.40;;
7160;SDS011;3622;53.576;9.978;2024-02-23T01:16:03;0.80;;;0.50;;
7160;SDS011;3622;53.576;9.978;2024-02-23T01:18:29;0.90;;;0.50;;
7160;SDS011;3622;53.576;9.978;2024-02-23T01:20:56;0.70;;;0.50;;
7160;SDS011;3622;53.576;9.978;2024-02-23T01:23:22;0.80;;;0.60;;
7160;SDS011;3622;53.576;9.978;2024-02-23T01:25:48;0.67;;;0.40;;
7160;SDS011;3622;53.576;9.978;2024-02-23T01:28:14;0.80;;;0.60;;
7160;SDS011;3622;53.576;9.978;2024-02-23T01:30:40;1.10;;;0.40;;
7160;SDS011;3622;53.576;9.978;2024-02-23T01:33:06;0.77;;;0.60;;
7160;SDS011;3622;53.576;9.978;2024-02-23T01:35:32;1.47;;;0.60;;
7160;SDS011;3622;53.576;9.978;2024-02-23T01:37:58;0.80;;;0.50;;
7160;SDS011;3622;53.576;9.978;2024-02-23T01:40:24;0.80;;;0.50;;
7160;SDS011;3622;53.576;9.978;2024-02-23T01:42:59;0.80;;;0.60;;
7160;SDS011;3622;53.576;9.978;2024-02-23T01:45:26;1.00;;;0.50;;
7160;SDS011;3622;53.576;9.978;2024-02-23T01:47:53;1.27;;;0.50;;
7160;SDS011;3622;53.576;9.978;2024-02-23T01:50:19;0.90;;;0.57;;
7160;SDS011;3622;53.576;9.978;2024-02-23T01:52:44;0.60;;;0.40;;
7160;SDS011;3622;53.576;9.978;2024-02-23T01:55:10;0.70;;;0.40;;
7160;SDS011;3622;53.576;9.978;2024-02-23T01:57:37;0.60;;;0.40;;
7160;SDS011;3622;53.576;9.978;2024-02-23T02:00:04;0.70;;;0.50;;
7160;SDS011;3622;53.576;9.978;2024-02-23T02:02:31;0.80;;;0.47;;
7160;SDS011;3622;53.576;9.978;2024-02-23T02:04:57;1.23;;;0.30;;
7160;SDS011;3622;53.576;9.978;2024-02-23T02:07:23;0.50;;;0.30;;
7160;SDS011;3622;53.576;9.978;2024-02-23T02:09:50;0.53;;;0.30;;
7160;SDS011;3622;53.576;9.978;2024-02-23T02:12:25;0.60;;;0.30;;
7160;SDS011;3622;53.576;9.978;2024-02-23T02:14:52;1.80;;;0.27;;
7160;SDS011;3622;53.576;9.978;2024-02-23T02:17:18;0.60;;;0.40;;
7160;SDS011;3622;53.576;9.978;2024-02-23T02:19:50;0.73;;;0.50;;
7160;SDS011;3622;53.576;9.978;2024-02-23T02:22:16;0.70;;;0.40;;
7160;SDS011;3622;53.576;9.978;2024-02-23T02:24:42;0.50;;;0.30;;
7160;SDS011;3622;53.576;9.978;2024-02-23T02:27:09;0.97;;;0.30;;
7160;SDS011;3622;53.576;9.978;2024-02-23T02:29:35;0.60;;;0.30;;
7160;SDS011;3622;53.576;9.978;2024-02-23T02:32:01;0.60;;;0.30;;
7160;SDS011;3622;53.576;9.978;2024-02-23T02:34:27;1.27;;;0.30;;
7160;SDS011;3622;53.576;9.978;2024-02-23T02:36:54;0.60;;;0.30;;
7160;SDS011;3622;53.576;9.978;2024-02-23T02:39:20;0.60;;;0.30;;
7160;SDS011;3622;53.576;9.978;2024-02-23T02:41:47;0.60;;;0.30;;
7160;SDS011;3622;53.576;9.978;2024-02-23T02:44:14;0.53;;;0.20;;
7160;SDS011;3622;53.576;9.978;2024-02-23T02:46:40;0.50;;;0.30;;
7160;SDS011;3622;53.576;9.978;2024-02-23T02:49:06;0.50;;;0.20;;
7160;SDS011;3622;53.576;9.978;2024-02-23T02:51:32;0.60;;;0.30;;
7160;SDS011;3622;53.576;9.978;2024-02-23T02:53:58;0.57;;;0.23;;
7160;SDS011;3622;53.576;9.978;2024-02-23T02:56:24;0.63;;;0.30;;
7160;SDS011;3622;53.576;9.978;2024-02-23T02:58:50;0.60;;;0.30;;
7160;SDS011;3622;53.576;9.978;2024-02-23T03:01:16;0.70;;;0.30;;
7160;SDS011;3622;53.576;9.978;2024-02-23T03:03:42;0.60;;;0.30;;
7160;SDS011;3622;53.576;9.978;2024-02-23T03:06:08;0.60;;;0.30;;
7160;SDS011;3622;53.576;9.978;2024-02-23T03:08:34;0.50;;;0.30;;
7160;SDS011;3622;53.576;9.978;2024-02-23T03:11:00;0.60;;;0.30;;
7160;SDS011;3622;53.576;9.978;2024-02-23T03:13:26;1.43;;;0.40;;
7160;SDS011;3622;53.576;9.978;2024-02-23T03:15:52;0.80;;;0.30;;
7160;SDS011;3622;53.576;9.978;2024-02-23T03:18:18;0.67;;;0.33;;
7160;SDS011;3622;53.576;9.978;2024-02-23T03:20:44;0.60;;;0.30;;
7160;SDS011;3622;53.576;9.978;2024-02-23T03:23:11;0.80;;;0.47;;
7160;SDS011;3622;53.576;9.978;2024-02-23T03:25:37;0.70;;;0.30;;
7160;SDS011;3622;53.576;9.978;2024-02-23T03:28:03;0.70;;;0.50;;
7160;SDS011;3622;53.576;9.978;2024-02-23T03:30:29;0.70;;;0.53;;
7160;SDS011;3622;53.576;9.978;2024-02-23T03:32:55;0.90;;;0.50;;
7160;SDS011;3622;53.576;9.978;2024-02-23T03:35:21;0.97;;;0.50;;
7160;SDS011;3622;53.576;9.978;2024-02-23T03:37:47;0.90;;;0.90;;
7160;SDS011;3622;53.576;9.978;2024-02-23T03:40:13;0.93;;;0.80;;
7160;SDS011;3622;53.576;9.978;2024-02-23T03:42:39;1.40;;;0.60;;
7160;SDS011;3622;53.576;9.978;2024-02-23T03:45:05;1.27;;;0.87;;
7160;SDS011;3622;53.576;9.978;2024-02-23T03:47:31;1.00;;;0.90;;
7160;SDS011;3622;53.576;9.978;2024-02-23T03:49:57;0.70;;;0.70;;
7160;SDS011;3622;53.576;9.978;2024-02-23T03:52:23;1.50;;;0.53;;
7160;SDS011;3622;53.576;9.978;2024-02-23T03:54:49;2.10;;;0.80;;
7160;SDS011;3622;53.576;9.978;2024-02-23T03:57:16;0.80;;;0.73;;
7160;SDS011;3622;53.576;9.978;2024-02-23T03:59:52;0.90;;;0.60;;
7160;SDS011;3622;53.576;9.978;2024-02-23T04:02:18;2.40;;;1.40;;
7160;SDS011;3622;53.576;9.978;2024-02-23T04:04:44;0.60;;;0.50;;
7160;SDS011;3622;53.576;9.978;2024-02-23T04:07:10;2.20;;;0.90;;
7160;SDS011;3622;53.576;9.978;2024-02-23T04:09:36;0.87;;;0.87;;
7160;SDS011;3622;53.576;9.978;2024-02-23T04:12:02;3.53;;;0.97;;
7160;SDS011;3622;53.576;9.978;2024-02-23T04:14:28;1.60;;;0.60;;
7160;SDS011;3622;53.576;9.978;2024-02-23T04:16:54;1.30;;;0.60;;
7160;SDS011;3622;53.576;9.978;2024-02-23T04:19:20;6.53;;;1.20;;
7160;SDS011;3622;53.576;9.978;2024-02-23T04:21:46;3.97;;;0.97;;
7160;SDS011;3622;53.576;9.978;2024-02-23T04:24:12;0.90;;;0.70;;
7160;SDS011;3622;53.576;9.978;2024-02-23T04:26:38;0.87;;;0.73;;
7160;SDS011;3622;53.576;9.978;2024-02-23T04:29:04;0.70;;;0.60;;
7160;SDS011;3622;53.576;9.978;2024-02-23T04:31:30;1.03;;;0.70;;
7160;SDS011;3622;53.576;9.978;2024-02-23T04:33:56;1.20;;;0.80;;
7160;SDS011;3622;53.576;9.978;2024-02-23T04:36:22;0.70;;;0.60;;
7160;SDS011;3622;53.576;9.978;2024-02-23T04:38:47;1.63;;;1.07;;
7160;SDS011;3622;53.576;9.978;2024-02-23T04:41:13;1.73;;;0.87;;
7160;SDS011;3622;53.576;9.978;2024-02-23T04:43:39;3.03;;;0.70;;
7160;SDS011;3622;53.576;9.978;2024-02-23T04:46:05;1.80;;;0.93;;
7160;SDS011;3622;53.576;9.978;2024-02-23T04:48:31;3.27;;;0.90;;
7160;SDS011;3622;53.576;9.978;2024-02-23T04:50:58;1.77;;;0.87;;
7160;SDS011;3622;53.576;9.978;2024-02-23T04:53:23;0.80;;;0.73;;
7160;SDS011;3622;53.576;9.978;2024-02-23T04:55:49;1.50;;;1.10;;
7160;SDS011;3622;53.576;9.978;2024-02-23T04:58:15;1.10;;;1.00;;
7160;SDS011;3622;53.576;9.978;2024-02-23T05:00:42;1.27;;;1.17;;
7160;SDS011;3622;53.576;9.978;2024-02-23T05:03:08;1.70;;;1.20;;
7160;SDS011;3622;53.576;9.978;2024-02-23T05:05:34;1.30;;;1.20;;
7160;SDS011;3622;53.576;9.978;2024-02-23T05:08:01;3.53;;;1.37;;
7160;SDS011;3622;53.576;9.978;2024-02-23T05:10:27;1.67;;;1.40;;
7160;SDS011;3622;53.576;9.978;2024-02-23T05:12:53;2.57;;;1.40;;
7160;SDS011;3622;53.576;9.978;2024-02-23T05:15:20;1.93;;;1.57;;
7160;SDS011;3622;53.576;9.978;2024-02-23T05:17:46;4.27;;;1.53;;
7160;SDS011;3622;53.576;9.978;2024-02-23T05:20:12;1.70;;;1.60;;
7160;SDS011;3622;53.576;9.978;2024-02-23T05:22:38;1.97;;;1.63;;
7160;SDS011;3622;53.576;9.978;2024-02-23T05:25:04;2.07;;;1.37;;
7160;SDS011;3622;53.576;9.978;2024-02-23T05:27:30;1.60;;;1.50;;
7160;SDS011;3622;53.576;9.978;2024-02-23T05:29:56;2.90;;;1.33;;
7160;SDS011;3622;53.576;9.978;2024-02-23T05:32:22;3.10;;;1.50;;
7160;SDS011;3622;53.576;9.978;2024-02-23T05:34:48;1.60;;;1.50;;
7160;SDS011;3622;53.576;9.978;2024-02-23T05:37:17;1.80;;;1.43;;
7160;SDS011;3622;53.576;9.978;2024-02-23T05:39:43;1.77;;;1.60;;
7160;SDS011;3622;53.576;9.978;2024-02-23T05:42:10;4.70;;;1.70;;
7160;SDS011;3622;53.576;9.978;2024-02-23T05:44:36;1.80;;;1.70;;
7160;SDS011;3622;53.576;9.978;2024-02-23T05:47:02;3.70;;;1.60;;
7160;SDS011;3622;53.576;9.978;2024-02-23T05:49:29;3.90;;;1.70;;
7160;SDS011;3622;53.576;9.978;2024-02-23T05:51:55;5.80;;;2.43;;
7160;SDS011;3622;53.576;9.978;2024-02-23T05:54:21;2.43;;;1.80;;
7160;SDS011;3622;53.576;9.978;2024-02-23T05:56:47;2.40;;;2.00;;
7160;SDS011;3622;53.576;9.978;2024-02-23T05:59:14;1.40;;;1.27;;
7160;SDS011;3622;53.576;9.978;2024-02-23T06:01:40;3.50;;;2.93;;
7160;SDS011;3622;53.576;9.978;2024-02-23T06:04:06;2.03;;;1.60;;
7160;SDS011;3622;53.576;9.978;2024-02-23T06:06:32;1.90;;;1.80;;
7160;SDS011;3622;53.576;9.978;2024-02-23T06:08:58;2.50;;;1.10;;
7160;SDS011;3622;53.576;9.978;2024-02-23T06:11:25;2.07;;;1.17;;
7160;SDS011;3622;53.576;9.978;2024-02-23T06:13:51;1.17;;;1.00;;
7160;SDS011;3622;53.576;9.978;2024-02-23T06:16:17;1.90;;;1.03;;
7160;SDS011;3622;53.576;9.978;2024-02-23T06:18:43;2.40;;;1.23;;
7160;SDS011;3622;53.576;9.978;2024-02-23T06:21:12;2.43;;;1.50;;
7160;SDS011;3622;53.576;9.978;2024-02-23T06:23:39;1.23;;;1.07;;
7160;SDS011;3622;53.576;9.978;2024-02-23T06:26:05;1.70;;;1.60;;
7160;SDS011;3622;53.576;9.978;2024-02-23T06:28:31;3.73;;;1.90;;
7160;SDS011;3622;53.576;9.978;2024-02-23T06:30:57;1.87;;;1.33;;
7160;SDS011;3622;53.576;9.978;2024-02-23T06:33:23;2.10;;;1.83;;
7160;SDS011;3622;53.576;9.978;2024-02-23T06:35:50;2.43;;;1.37;;
7160;SDS011;3622;53.576;9.978;2024-02-23T06:38:17;1.47;;;1.37;;
7160;SDS011;3622;53.576;9.978;2024-02-23T06:40:43;4.60;;;1.30;;
7160;SDS011;3622;53.576;9.978;2024-02-23T06:43:09;1.87;;;1.67;;
7160;SDS011;3622;53.576;9.978;2024-02-23T06:45:35;3.97;;;1.50;;
7160;SDS011;3622;53.576;9.978;2024-02-23T06:48:01;1.20;;;1.10;;
7160;SDS011;3622;53.576;9.978;2024-02-23T06:50:28;3.63;;;1.53;;
7160;SDS011;3622;53.576;9.978;2024-02-23T06:52:54;3.73;;;1.77;;
7160;SDS011;3622;53.576;9.978;2024-02-23T06:55:20;1.80;;;1.60;;
7160;SDS011;3622;53.576;9.978;2024-02-23T06:57:46;2.43;;;1.50;;
7160;SDS011;3622;53.576;9.978;2024-02-23T07:00:12;2.43;;;1.80;;
7160;SDS011;3622;53.576;9.978;2024-02-23T07:02:38;2.40;;;1.67;;
7160;SDS011;3622;53.576;9.978;2024-02-23T07:05:04;1.80;;;1.70;;
7160;SDS011;3622;53.576;9.978;2024-02-23T07:07:30;5.87;;;1.93;;
7160;SDS011;3622;53.576;9.978;2024-02-23T07:09:58;2.10;;;1.90;;
7160;SDS011;3622;53.576;9.978;2024-02-23T07:12:23;2.30;;;2.10;;
7160;SDS011;3622;53.576;9.978;2024-02-23T07:14:52;3.97;;;1.90;;
7160;SDS011;3622;53.576;9.978;2024-02-23T07:17:18;5.60;;;2.40;;
7160;SDS011;3622;53.576;9.978;2024-02-23T07:19:44;2.07;;;1.80;;
7160;SDS011;3622;53.576;9.978;2024-02-23T07:22:10;2.33;;;1.63;;
7160;SDS011;3622;53.576;9.978;2024-02-23T07:24:39;2.30;;;2.20;;
7160;SDS011;3622;53.576;9.978;2024-02-23T07:27:05;3.13;;;2.40;;
7160;SDS011;3622;53.576;9.978;2024-02-23T07:29:31;2.30;;;2.10;;
7160;SDS011;3622;53.576;9.978;2024-02-23T07:31:57;5.30;;;2.20;;
7160;SDS011;3622;53.576;9.978;2024-02-23T07:34:23;2.30;;;2.10;;
7160;SDS011;3622;53.576;9.978;2024-02-23T07:36:52;3.37;;;2.30;;
7160;SDS011;3622;53.576;9.978;2024-02-23T07:39:19;3.00;;;1.70;;
7160;SDS011;3622;53.576;9.978;2024-02-23T07:41:45;5.50;;;2.80;;
7160;SDS011;3622;53.576;9.978;2024-02-23T07:44:11;4.70;;;2.40;;
7160;SDS011;3622;53.576;9.978;2024-02-23T07:46:37;4.90;;;2.37;;
7160;SDS011;3622;53.576;9.978;2024-02-23T07:49:06;2.83;;;2.30;;
7160;SDS011;3622;53.576;9.978;2024-02-23T07:51:32;5.17;;;1.90;;
7160;SDS011;3622;53.576;9.978;2024-02-23T07:53:58;2.60;;;2.00;;
7160;SDS011;3622;53.576;9.978;2024-02-23T07:56:24;3.33;;;2.40;;
7160;SDS011;3622;53.576;9.978;2024-02-23T07:58:50;3.33;;;1.97;;
7160;SDS011;3622;53.576;9.978;2024-02-23T08:01:16;2.40;;;1.53;;
7160;SDS011;3622;53.576;9.978;2024-02-23T08:03:42;2.83;;;2.00;;
7160;SDS011;3622;53.576;9.978;2024-02-23T08:06:08;3.67;;;2.03;;
7160;SDS011;3622;53.576;9.978;2024-02-23T08:08:34;5.80;;;1.90;;
7160;SDS011;3622;53.576;9.978;2024-02-23T08:11:03;4.47;;;1.53;;
7160;SDS011;3622;53.576;9.978;2024-02-23T08:13:29;1.57;;;1.47;;
7160;SDS011;3622;53.576;9.978;2024-02-23T08:15:56;3.53;;;1.53;;
7160;SDS011;3622;53.576;9.978;2024-02-23T08:18:22;3.03;;;1.53;;
7160;SDS011;3622;53.576;9.978;2024-02-23T08:20:48;1.73;;;1.60;;
7160;SDS011;3622;53.576;9.978;2024-02-23T08:23:14;1.80;;;1.27;;
7160;SDS011;3622;53.576;9.978;2024-02-23T08:25:40;3.10;;;1.50;;
7160;SDS011;3622;53.576;9.978;2024-02-23T08:28:06;2.70;;;1.60;;
7160;SDS011;3622;53.576;9.978;2024-02-23T08:30:32;2.53;;;1.50;;
7160;SDS011;3622;53.576;9.978;2024-02-23T08:32:58;1.97;;;1.57;;
7160;SDS011;3622;53.576;9.978;2024-02-23T08:35:25;9.47;;;1.70;;
7160;SDS011;3622;53.576;9.978;2024-02-23T08:37:51;4.13;;;1.77;;
7160;SDS011;3622;53.576;9.978;2024-02-23T08:40:17;3.60;;;1.73;;
7160;SDS011;3622;53.576;9.978;2024-02-23T08:42:43;4.67;;;1.90;;
7160;SDS011;3622;53.576;9.978;2024-02-23T08:45:09;3.03;;;1.60;;
7160;SDS011;3622;53.576;9.978;2024-02-23T08:47:37;2.23;;;1.60;;
7160;SDS011;3622;53.576;9.978;2024-02-23T08:50:03;2.03;;;1.30;;
7160;SDS011;3622;53.576;9.978;2024-02-23T08:52:29;7.13;;;1.53;;
7160;SDS011;3622;53.576;9.978;2024-02-23T08:54:55;1.57;;;1.43;;
7160;SDS011;3622;53.576;9.978;2024-02-23T08:57:21;2.50;;;1.70;;
7160;SDS011;3622;53.576;9.978;2024-02-23T08:59:51;3.43;;;1.93;;
7160;SDS011;3622;53.576;9.978;2024-02-23T09:02:17;4.00;;;1.53;;
7160;SDS011;3622;53.576;9.978;2024-02-23T09:04:44;1.53;;;1.43;;
7160;SDS011;3622;53.576;9.978;2024-02-23T09:07:10;2.70;;;1.23;;
7160;SDS011;3622;53.576;9.978;2024-02-23T09:09:36;5.20;;;1.80;;
7160;SDS011;3622;53.576;9.978;2024-02-23T09:12:02;3.73;;;1.50;;
7160;SDS011;3622;53.576;9.978;2024-02-23T09:14:28;3.37;;;1.50;;
7160;SDS011;3622;53.576;9.978;2024-02-23T09:16:55;2.33;;;1.50;;
7160;SDS011;3622;53.576;9.978;2024-02-23T09:19:20;3.13;;;1.70;;
7160;SDS011;3622;53.576;9.978;2024-02-23T09:21:47;6.60;;;1.50;;
7160;SDS011;3622;53.576;9.978;2024-02-23T09:24:13;2.40;;;1.53;;
7160;SDS011;3622;53.576;9.978;2024-02-23T09:26:39;10.00;;;1.63;;
7160;SDS011;3622;53.576;9.978;2024-02-23T09:29:05;2.80;;;1.30;;
7160;SDS011;3622;53.576;9.978;2024-02-23T09:31:31;5.30;;;1.27;;
7160;SDS011;3622;53.576;9.978;2024-02-23T09:33:58;2.30;;;1.90;;
7160;SDS011;3622;53.576;9.978;2024-02-23T09:36:24;3.33;;;1.53;;
7160;SDS011;3622;53.576;9.978;2024-02-23T09:38:50;2.40;;;1.30;;
7160;SDS011;3622;53.576;9.978;2024-02-23T09:41:19;2.43;;;1.67;;
7160;SDS011;3622;53.576;9.978;2024-02-23T09:43:46;4.03;;;1.67;;
7160;SDS011;3622;53.576;9.978;2024-02-23T09:46:13;5.50;;;1.50;;
7160;SDS011;3622;53.576;9.978;2024-02-23T09:48:40;2.00;;;1.23;;
7160;SDS011;3622;53.576;9.978;2024-02-23T09:51:07;2.37;;;1.40;;
7160;SDS011;3622;53.576;9.978;2024-02-23T09:53:36;3.77;;;1.47;;
7160;SDS011;3622;53.576;9.978;2024-02-23T09:56:03;5.53;;;1.40;;
7160;SDS011;3622;53.576;9.978;2024-02-23T09:58:29;4.47;;;1.63;;
7160;SDS011;3622;53.576;9.978;2024-02-23T10:00:56;5.13;;;1.73;;
7160;SDS011;3622;53.576;9.978;2024-02-23T10:03:24;2.50;;;1.53;;
7160;SDS011;3622;53.576;9.978;2024-02-23T10:05:51;1.57;;;1.37;;
7160;SDS011;3622;53.576;9.978;2024-02-23T10:08:17;6.30;;;1.43;;
7160;SDS011;3622;53.576;9.978;2024-02-23T10:10:45;3.27;;;1.77;;
7160;SDS011;3622;53.576;9.978;2024-02-23T10:13:11;1.50;;;1.23;;
7160;SDS011;3622;53.576;9.978;2024-02-23T10:15:37;2.70;;;1.17;;
7160;SDS011;3622;53.576;9.978;2024-02-23T10:18:06;3.80;;;1.53;;
7160;SDS011;3622;53.576;9.978;2024-02-23T10:20:32;2.40;;;1.80;;
7160;SDS011;3622;53.576;9.978;2024-02-23T10:22:59;6.50;;;1.83;;
7160;SDS011;3622;53.576;9.978;2024-02-23T10:25:25;6.90;;;1.83;;
7160;SDS011;3622;53.576;9.978;2024-02-23T10:27:51;3.37;;;1.53;;
7160;SDS011;3622;53.576;9.978;2024-02-23T10:30:17;2.03;;;1.13;;
7160;SDS011;3622;53.576;9.978;2024-02-23T10:32:43;7.23;;;1.80;;
7160;SDS011;3622;53.576;9.978;2024-02-23T10:35:14;3.07;;;1.57;;
7160;SDS011;3622;53.576;9.978;2024-02-23T10:37:42;2.60;;;1.37;;
7160;SDS011;3622;53.576;9.978;2024-02-23T10:40:09;4.73;;;1.70;;
7160;SDS011;3622;53.576;9.978;2024-02-23T10:42:37;8.97;;;2.30;;
7160;SDS011;3622;53.576;9.978;2024-02-23T10:45:04;3.90;;;1.70;;
7160;SDS011;3622;53.576;9.978;2024-02-23T10:47:31;3.57;;;1.67;;
7160;SDS011;3622;53.576;9.978;2024-02-23T10:49:59;4.70;;;1.50;;
7160;SDS011;3622;53.576;9.978;2024-02-23T10:52:26;2.87;;;1.50;;
7160;SDS011;3622;53.576;9.978;2024-02-23T10:54:52;2.57;;;1.60;;
7160;SDS011;3622;53.576;9.978;2024-02-23T10:57:19;14.93;;;1.70;;
7160;SDS011;3622;53.576;9.978;2024-02-23T10:59:46;2.67;;;1.93;;
7160;SDS011;3622;53.576;9.978;2024-02-23T11:02:12;3.63;;;1.63;;
7160;SDS011;3622;53.576;9.978;2024-02-23T11:04:41;1.33;;;1.03;;
7160;SDS011;3622;53.576;9.978;2024-02-23T11:07:12;4.97;;;1.53;;
7160;SDS011;3622;53.576;9.978;2024-02-23T11:09:39;2.70;;;2.07;;
7160;SDS011;3622;53.576;9.978;2024-02-23T11:12:05;3.53;;;1.40;;
7160;SDS011;3622;53.576;9.978;2024-02-23T11:14:35;2.07;;;1.20;;
7160;SDS011;3622;53.576;9.978;2024-02-23T11:17:01;1.10;;;1.00;;
7160;SDS011;3622;53.576;9.978;2024-02-23T11:19:39;1.83;;;1.27;;
7160;SDS011;3622;53.576;9.978;2024-02-23T11:22:09;2.20;;;1.50;;
7160;SDS011;3622;53.576;9.978;2024-02-23T11:24:41;1.67;;;1.27;;
7160;SDS011;3622;53.576;9.978;2024-02-23T11:27:12;3.20;;;1.77;;
7160;SDS011;3622;53.576;9.978;2024-02-23T11:29:39;2.33;;;1.10;;
7160;SDS011;3622;53.576;9.978;2024-02-23T11:32:17;3.73;;;1.63;;
7160;SDS011;3622;53.576;9.978;2024-02-23T11:34:55;7.53;;;1.60;;
7160;SDS011;3622;53.576;9.978;2024-02-23T11:37:21;1.37;;;0.90;;
7160;SDS011;3622;53.576;9.978;2024-02-23T11:39:48;7.23;;;1.07;;
7160;SDS011;3622;53.576;9.978;2024-02-23T11:42:14;7.83;;;1.20;;
7160;SDS011;3622;53.576;9.978;2024-02-23T11:44:40;3.33;;;1.10;;
7160;SDS011;3622;53.576;9.978;2024-02-23T11:47:07;4.00;;;1.30;;
7160;SDS011;3622;53.576;9.978;2024-02-23T11:49:33;2.13;;;1.40;;
7160;SDS011;3622;53.576;9.978;2024-02-23T11:51:59;2.57;;;1.00;;
7160;SDS011;3622;53.576;9.978;2024-02-23T11:54:25;1.03;;;0.73;;
7160;SDS011;3622;53.576;9.978;2024-02-23T11:56:51;3.57;;;1.07;;
7160;SDS011;3622;53.576;9.978;2024-02-23T11:59:20;1.67;;;1.57;;
7160;SDS011;3622;53.576;9.978;2024-02-23T12:01:48;3.70;;;1.37;;
7160;SDS011;3622;53.576;9.978;2024-02-23T12:04:14;4.70;;;1.20;;
7160;SDS011;3622;53.576;9.978;2024-02-23T12:06:41;2.40;;;1.40;;
7160;SDS011;3622;53.576;9.978;2024-02-23T12:09:07;1.37;;;0.90;;
7160;SDS011;3622;53.576;9.978;2024-02-23T12:11:33;6.50;;;1.20;;
7160;SDS011;3622;53.576;9.978;2024-02-23T12:14:00;2.57;;;1.27;;
7160;SDS011;3622;53.576;9.978;2024-02-23T12:16:27;2.70;;;1.50;;
7160;SDS011;3622;53.576;9.978;2024-02-23T12:18:53;3.00;;;0.80;;
7160;SDS011;3622;53.576;9.978;2024-02-23T12:21:20;1.50;;;1.23;;
7160;SDS011;3622;53.576;9.978;2024-02-23T12:23:48;6.27;;;1.50;;
7160;SDS011;3622;53.576;9.978;2024-02-23T12:26:15;1.17;;;1.07;;
7160;SDS011;3622;53.576;9.978;2024-02-23T12:28:42;2.87;;;0.90;;
7160;SDS011;3622;53.576;9.978;2024-02-23T12:31:08;1.43;;;0.73;;
7160;SDS011;3622;53.576;9.978;2024-02-23T12:33:35;1.30;;;1.07;;
7160;SDS011;3622;53.576;9.978;2024-02-23T12:36:01;4.93;;;1.10;;
7160;SDS011;3622;53.576;9.978;2024-02-23T12:38:27;3.10;;;1.20;;
7160;SDS011;3622;53.576;9.978;2024-02-23T12:40:53;1.40;;;0.93;;
7160;SDS011;3622;53.576;9.978;2024-02-23T12:43:20;3.20;;;1.00;;
7160;SDS011;3622;53.576;9.978;2024-02-23T12:45:47;3.57;;;0.83;;
7160;SDS011;3622;53.576;9.978;2024-02-23T12:48:16;5.03;;;1.70;;
7160;SDS011;3622;53.576;9.978;2024-02-23T12:50:42;2.67;;;1.50;;
7160;SDS011;3622;53.576;9.978;2024-02-23T12:53:09;1.10;;;1.00;;
7160;SDS011;3622;53.576;9.978;2024-02-23T12:55:35;1.60;;;0.87;;
7160;SDS011;3622;53.576;9.978;2024-02-23T12:58:01;2.50;;;1.00;;
7160;SDS011;3622;53.576;9.978;2024-02-23T13:00:27;3.13;;;0.90;;
7160;SDS011;3622;53.576;9.978;2024-02-23T13:02:53;3.30;;;0.90;;
7160;SDS011;3622;53.576;9.978;2024-02-23T13:05:20;2.20;;;0.90;;
7160;SDS011;3622;53.576;9.978;2024-02-23T13:07:46;0.90;;;0.90;;
7160;SDS011;3622;53.576;9.978;2024-02-23T13:10:13;2.87;;;0.90;;
7160;SDS011;3622;53.576;9.978;2024-02-23T13:12:39;4.93;;;1.37;;
7160;SDS011;3622;53.576;9.978;2024-02-23T13:15:06;4.13;;;1.00;;
7160;SDS011;3622;53.576;9.978;2024-02-23T13:17:32;3.50;;;0.90;;
7160;SDS011;3622;53.576;9.978;2024-02-23T13:19:57;1.30;;;0.90;;
7160;SDS011;3622;53.576;9.978;2024-02-23T13:22:23;1.17;;;1.07;;
7160;SDS011;3622;53.576;9.978;2024-02-23T13:24:49;2.60;;;0.90;;
7160;SDS011;3622;53.576;9.978;2024-02-23T13:27:15;1.00;;;0.80;;
7160;SDS011;3622;53.576;9.978;2024-02-23T13:29:41;1.13;;;0.57;;
7160;SDS011;3622;53.576;9.978;2024-02-23T13:32:07;1.27;;;1.10;;
7160;SDS011;3622;53.576;9.978;2024-02-23T13:34:33;2.20;;;1.10;;
7160;SDS011;3622;53.576;9.978;2024-02-23T13:36:59;1.00;;;0.77;;
7160;SDS011;3622;53.576;9.978;2024-02-23T13:39:25;2.80;;;0.70;;
7160;SDS011;3622;53.576;9.978;2024-02-23T13:41:51;3.63;;;1.30;;
7160;SDS011;3622;53.576;9.978;2024-02-23T13:44:17;2.60;;;0.70;;
7160;SDS011;3622;53.576;9.978;2024-02-23T13:46:43;1.60;;;0.87;;
7160;SDS011;3622;53.576;9.978;2024-02-23T13:49:09;1.23;;;1.13;;
7160;SDS011;3622;53.576;9.978;2024-02-23T13:51:37;3.63;;;1.20;;
7160;SDS011;3622;53.576;9.978;2024-02-23T13:54:03;2.00;;;0.90;;
7160;SDS011;3622;53.576;9.978;2024-02-23T13:56:30;0.93;;;0.80;;
7160;SDS011;3622;53.576;9.978;2024-02-23T13:58:56;1.97;;;0.63;;
7160;SDS011;3622;53.576;9.978;2024-02-23T14:01:21;2.10;;;1.10;;
7160;SDS011;3622;53.576;9.978;2024-02-23T14:03:47;2.20;;;0.70;;
7160;SDS011;3622;53.576;9.978;2024-02-23T14:06:13;0.90;;;0.60;;
7160;SDS011;3622;53.576;9.978;2024-02-23T14:08:39;4.30;;;0.80;;
7160;SDS011;3622;53.576;9.978;2024-02-23T14:11:07;1.67;;;0.70;;
7160;SDS011;3622;53.576;9.978;2024-02-23T14:13:33;2.50;;;0.80;;
7160;SDS011;3622;53.576;9.978;2024-02-23T14:15:59;2.80;;;0.63;;
7160;SDS011;3622;53.576;9.978;2024-02-23T14:18:26;0.87;;;0.50;;
7160;SDS011;3622;53.576;9.978;2024-02-23T14:20:52;3.43;;;0.80;;
7160;SDS011;3622;53.576;9.978;2024-02-23T14:23:18;1.37;;;0.57;;
7160;SDS011;3622;53.576;9.978;2024-02-23T14:25:44;1.73;;;0.90;;
7160;SDS011;3622;53.576;9.978;2024-02-23T14:28:10;1.47;;;0.77;;
7160;SDS011;3622;53.576;9.978;2024-02-23T14:30:37;1.87;;;0.70;;
7160;SDS011;3622;53.576;9.978;2024-02-23T14:33:05;1.33;;;0.90;;
7160;SDS011;3622;53.576;9.978;2024-02-23T14:35:31;2.17;;;0.80;;
7160;SDS011;3622;53.576;9.978;2024-02-23T14:37:57;4.00;;;1.23;;
7160;SDS011;3622;53.576;9.978;2024-02-23T14:40:23;1.23;;;0.93;;
7160;SDS011;3622;53.576;9.978;2024-02-23T14:42:49;0.90;;;0.70;;
7160;SDS011;3622;53.576;9.978;2024-02-23T14:45:15;0.80;;;0.60;;
7160;SDS011;3622;53.576;9.978;2024-02-23T14:47:41;4.47;;;1.70;;
7160;SDS011;3622;53.576;9.978;2024-02-23T14:50:09;1.80;;;1.30;;
7160;SDS011;3622;53.576;9.978;2024-02-23T14:52:35;2.23;;;1.40;;
7160;SDS011;3622;53.576;9.978;2024-02-23T14:55:01;3.00;;;1.17;;
7160;SDS011;3622;53.576;9.978;2024-02-23T14:57:28;2.23;;;1.17;;
7160;SDS011;3622;53.576;9.978;2024-02-23T14:59:54;1.40;;;1.30;;
7160;SDS011;3622;53.576;9.978;2024-02-23T15:02:21;2.03;;;0.90;;
7160;SDS011;3622;53.576;9.978;2024-02-23T15:04:47;1.13;;;1.00;;
7160;SDS011;3622;53.576;9.978;2024-02-23T15:07:13;1.13;;;0.70;;
7160;SDS011;3622;53.576;9.978;2024-02-23T15:09:39;1.83;;;0.70;;